createdAt,value
2019-02-24T00:01:23.453Z,2.40
2019-02-24T00:03:50.839Z,2.40
2019-02-24T00:06:18.318Z,2.40
2019-02-24T00:08:45.754Z,2.30
2019-02-24T00:11:13.200Z,2.30
2019-02-24T00:13:40.614Z,2.30
2019-02-24T00:16:07.961Z,2.30
2019-02-24T00:18:35.350Z,2.30
2019-02-24T00:21:02.816Z,2.30
2019-02-24T00:23:30.167Z,2.20
2019-02-24T00:25:57.591Z,2.20
2019-02-24T00:28:24.976Z,2.20
2019-02-24T00:30:52.415Z,2.20
2019-02-24T00:33:19.763Z,2.10
2019-02-24T00:35:47.181Z,2.10
2019-02-24T00:38:14.837Z,2.10
2019-02-24T00:40:42.418Z,2.00
2019-02-24T00:43:09.929Z,2.00
2019-02-24T00:45:37.352Z,1.90
2019-02-24T00:48:04.744Z,1.90
2019-02-24T00:50:32.142Z,1.80
2019-02-24T00:52:59.498Z,1.80
2019-02-24T00:55:26.915Z,1.80
2019-02-24T00:57:54.266Z,1.80
2019-02-24T01:00:21.789Z,1.80
2019-02-24T01:02:49.183Z,1.80
2019-02-24T01:05:16.583Z,1.80
2019-02-24T01:07:44.856Z,1.80
2019-02-24T01:10:12.386Z,1.70
2019-02-24T01:12:39.765Z,1.70
2019-02-24T01:15:07.561Z,1.80
2019-02-24T01:17:34.930Z,1.80
2019-02-24T01:20:02.354Z,1.80
2019-02-24T01:22:30.930Z,1.80
2019-02-24T01:24:58.318Z,1.80
2019-02-24T01:27:25.683Z,1.80
2019-02-24T01:29:52.960Z,1.80
2019-02-24T01:32:20.360Z,1.80
2019-02-24T01:34:47.622Z,1.80
2019-02-24T01:37:15.096Z,1.90
2019-02-24T01:39:42.446Z,1.90
2019-02-24T01:42:09.819Z,1.90
2019-02-24T01:44:37.216Z,1.90
2019-02-24T01:47:04.619Z,1.90
2019-02-24T01:49:31.968Z,1.90
2019-02-24T01:51:59.369Z,1.90
2019-02-24T01:54:26.728Z,1.90
2019-02-24T01:56:54.096Z,1.80
2019-02-24T01:59:21.497Z,1.80
2019-02-24T02:01:48.883Z,1.90
2019-02-24T02:04:16.278Z,1.90
2019-02-24T02:06:43.671Z,1.80
2019-02-24T02:09:11.059Z,1.80
2019-02-24T02:11:38.561Z,1.80
2019-02-24T02:14:05.944Z,1.70
2019-02-24T02:16:34.315Z,1.70
2019-02-24T02:19:01.755Z,1.70
2019-02-24T02:21:29.193Z,1.60
2019-02-24T02:23:57.668Z,1.70
2019-02-24T02:26:25.014Z,1.60
2019-02-24T02:28:52.375Z,1.60
2019-02-24T02:31:19.794Z,1.60
2019-02-24T02:33:47.223Z,1.60
2019-02-24T02:36:14.595Z,1.60
2019-02-24T02:38:42.060Z,1.60
2019-02-24T02:41:09.399Z,1.50
2019-02-24T02:43:36.723Z,1.50
2019-02-24T02:46:04.207Z,1.40
2019-02-24T02:48:31.526Z,1.50
2019-02-24T02:50:58.891Z,1.40
2019-02-24T02:53:26.202Z,1.40
2019-02-24T02:55:53.608Z,1.40
2019-02-24T02:58:21.001Z,1.30
2019-02-24T03:00:48.349Z,1.40
2019-02-24T03:03:15.835Z,1.30
2019-02-24T03:05:53.498Z,1.30
2019-02-24T03:08:22.697Z,1.30
2019-02-24T03:10:50.120Z,1.30
2019-02-24T03:13:17.545Z,1.30
2019-02-24T03:15:44.939Z,1.30
2019-02-24T03:18:12.283Z,1.30
2019-02-24T03:20:39.482Z,1.30
2019-02-24T03:23:06.916Z,1.30
2019-02-24T03:25:34.392Z,1.30
2019-02-24T03:28:01.637Z,1.30
2019-02-24T03:30:29.047Z,1.30
2019-02-24T03:32:56.377Z,1.30
2019-02-24T03:35:23.773Z,1.20
2019-02-24T03:37:51.165Z,1.20
2019-02-24T03:40:18.594Z,1.20
2019-02-24T03:42:46.028Z,1.20
2019-02-24T03:45:13.281Z,1.20
2019-02-24T03:47:40.722Z,1.20
2019-02-24T03:50:09.287Z,1.20
2019-02-24T03:52:36.713Z,1.10
2019-02-24T03:55:04.114Z,1.10
2019-02-24T03:57:31.481Z,1.20
2019-02-24T03:59:59.165Z,1.20
2019-02-24T04:02:26.703Z,1.20
2019-02-24T04:04:54.208Z,1.20
2019-02-24T04:07:21.643Z,1.20
2019-02-24T04:09:49.169Z,1.20
2019-02-24T04:12:16.549Z,1.20
2019-02-24T04:14:43.918Z,1.10
2019-02-24T04:17:12.238Z,1.10
2019-02-24T04:19:39.626Z,1.00
2019-02-24T04:22:06.967Z,1.00
2019-02-24T04:24:34.310Z,0.90
2019-02-24T04:27:01.675Z,0.90
2019-02-24T04:29:29.073Z,0.90
2019-02-24T04:31:56.507Z,0.80
2019-02-24T04:34:23.929Z,0.80
2019-02-24T04:36:51.362Z,0.80
2019-02-24T04:39:18.780Z,0.80
2019-02-24T04:41:46.138Z,0.80
2019-02-24T04:44:13.553Z,0.80
2019-02-24T04:46:40.917Z,0.70
2019-02-24T04:49:08.189Z,0.70
2019-02-24T04:51:35.606Z,0.70
2019-02-24T04:54:03.092Z,0.70
2019-02-24T04:56:30.437Z,0.80
2019-02-24T04:58:57.866Z,0.80
2019-02-24T05:01:25.117Z,0.80
2019-02-24T05:03:52.605Z,0.90
2019-02-24T05:06:19.934Z,0.90
2019-02-24T05:08:47.220Z,0.90
2019-02-24T05:11:14.642Z,0.80
2019-02-24T05:13:41.979Z,0.80
2019-02-24T05:16:09.351Z,0.80
2019-02-24T05:18:36.751Z,0.70
2019-02-24T05:21:04.231Z,0.70
2019-02-24T05:23:32.895Z,0.70
2019-02-24T05:26:00.260Z,0.60
2019-02-24T05:28:27.773Z,0.70
2019-02-24T05:30:55.105Z,0.60
2019-02-24T05:33:22.430Z,0.60
2019-02-24T05:35:49.850Z,0.60
2019-02-24T05:38:17.198Z,0.60
2019-02-24T05:40:44.546Z,0.60
2019-02-24T05:43:11.914Z,0.70
2019-02-24T05:45:39.285Z,0.70
2019-02-24T05:48:06.630Z,0.70
2019-02-24T05:50:33.912Z,0.70
2019-02-24T05:53:01.234Z,0.80
2019-02-24T05:55:28.567Z,0.80
2019-02-24T05:57:55.989Z,0.80
2019-02-24T06:00:23.423Z,0.80
2019-02-24T06:02:50.826Z,0.80
2019-02-24T06:05:18.246Z,0.80
2019-02-24T06:07:45.733Z,0.80
2019-02-24T06:10:13.092Z,0.70
2019-02-24T06:12:40.526Z,0.80
2019-02-24T06:15:07.846Z,0.70
2019-02-24T06:17:35.140Z,0.70
2019-02-24T06:20:02.661Z,0.70
2019-02-24T06:22:30.204Z,0.80
2019-02-24T06:24:57.594Z,0.90
2019-02-24T06:27:24.999Z,0.90
2019-02-24T06:29:52.415Z,1.10
2019-02-24T06:32:19.820Z,1.10
2019-02-24T06:34:47.291Z,1.30
2019-02-24T06:37:15.802Z,1.30
2019-02-24T06:39:43.233Z,1.30
2019-02-24T06:42:10.685Z,1.40
2019-02-24T06:44:38.076Z,1.40
2019-02-24T06:47:05.489Z,1.40
2019-02-24T06:49:33.065Z,1.40
2019-02-24T06:52:01.414Z,1.50
2019-02-24T06:54:28.755Z,1.50
2019-02-24T06:56:56.137Z,1.50
2019-02-24T06:59:23.738Z,1.60
2019-02-24T07:01:51.186Z,1.60
2019-02-24T07:04:18.634Z,1.60
2019-02-24T07:06:46.116Z,1.60
2019-02-24T07:09:13.353Z,1.60
2019-02-24T07:11:40.831Z,1.70
2019-02-24T07:14:08.245Z,1.70
2019-02-24T07:16:35.712Z,1.70
2019-02-24T07:19:03.127Z,1.80
2019-02-24T07:21:30.586Z,1.80
2019-02-24T07:23:58.029Z,1.90
2019-02-24T07:26:25.498Z,1.90
2019-02-24T07:28:53.940Z,1.90
2019-02-24T07:31:21.365Z,2.00
2019-02-24T07:33:48.702Z,2.10
2019-02-24T07:36:16.202Z,2.10
2019-02-24T07:38:43.715Z,2.20
2019-02-24T07:41:11.111Z,2.30
2019-02-24T07:43:38.493Z,2.30
2019-02-24T07:46:06.241Z,2.40
2019-02-24T07:48:33.701Z,2.50
2019-02-24T07:51:00.982Z,2.50
2019-02-24T07:53:28.413Z,2.70
2019-02-24T07:55:55.839Z,2.70
2019-02-24T07:58:23.245Z,2.80
2019-02-24T08:00:50.689Z,2.90
2019-02-24T08:03:17.961Z,3.00
2019-02-24T08:05:45.441Z,3.10
2019-02-24T08:08:16.468Z,3.20
2019-02-24T08:10:42.283Z,3.30
2019-02-24T08:13:09.748Z,3.40
2019-02-24T08:15:37.276Z,3.60
2019-02-24T08:18:04.749Z,3.60
2019-02-24T08:20:33.427Z,3.80
2019-02-24T08:23:01.050Z,3.90
2019-02-24T08:25:28.434Z,4.00
2019-02-24T08:27:55.972Z,4.00
2019-02-24T08:30:23.316Z,4.10
2019-02-24T08:32:50.751Z,4.20
2019-02-24T08:35:18.156Z,4.40
2019-02-24T08:37:45.548Z,4.50
2019-02-24T08:40:12.967Z,4.50
2019-02-24T08:42:40.412Z,4.60
2019-02-24T08:45:08.056Z,4.70
2019-02-24T08:47:35.486Z,4.80
2019-02-24T08:50:03.538Z,4.90
2019-02-24T08:52:31.007Z,5.00
2019-02-24T08:54:58.568Z,5.10
2019-02-24T08:57:25.919Z,5.20
2019-02-24T08:59:53.431Z,5.20
2019-02-24T09:02:20.809Z,5.40
2019-02-24T09:04:48.318Z,5.40
2019-02-24T09:07:16.018Z,5.50
2019-02-24T09:09:43.410Z,5.50
2019-02-24T09:12:10.833Z,5.60
2019-02-24T09:14:38.742Z,5.60
2019-02-24T09:17:06.114Z,5.70
2019-02-24T09:19:33.539Z,5.80
2019-02-24T09:22:00.925Z,5.80
2019-02-24T09:24:29.482Z,5.80
2019-02-24T09:26:56.891Z,5.90
2019-02-24T09:29:24.252Z,5.90
2019-02-24T09:31:51.758Z,6.00
2019-02-24T09:34:19.315Z,6.00
2019-02-24T09:36:46.673Z,6.00
2019-02-24T09:39:14.049Z,6.00
2019-02-24T09:41:41.762Z,6.10
2019-02-24T09:44:09.097Z,6.10
2019-02-24T09:46:37.517Z,6.20
2019-02-24T09:49:04.935Z,6.20
2019-02-24T09:51:32.338Z,6.30
2019-02-24T09:53:59.744Z,6.40
2019-02-24T09:56:27.387Z,6.50
2019-02-24T09:58:54.747Z,6.50
2019-02-24T10:01:22.194Z,6.60
2019-02-24T10:03:49.769Z,6.60
2019-02-24T10:06:17.135Z,6.70
2019-02-24T10:08:44.510Z,6.80
2019-02-24T10:11:13.301Z,6.80
2019-02-24T10:13:40.779Z,6.90
2019-02-24T10:16:08.134Z,6.90
2019-02-24T10:18:35.529Z,6.90
2019-02-24T10:21:03.086Z,7.10
2019-02-24T10:23:30.329Z,7.20
2019-02-24T10:25:57.724Z,7.20
2019-02-24T10:28:25.095Z,7.30
2019-02-24T10:30:52.589Z,7.30
2019-02-24T10:33:19.978Z,7.30
2019-02-24T10:35:47.447Z,7.40
2019-02-24T10:38:14.979Z,7.40
2019-02-24T10:40:42.369Z,7.50
2019-02-24T10:43:09.745Z,7.60
2019-02-24T10:45:37.103Z,7.60
2019-02-24T10:48:13.534Z,7.60
2019-02-24T10:50:33.773Z,7.70
2019-02-24T10:53:01.192Z,7.90
2019-02-24T10:55:28.593Z,8.00
2019-02-24T10:57:56.562Z,8.20
2019-02-24T11:00:23.882Z,8.30
2019-02-24T11:02:51.384Z,8.40
2019-02-24T11:05:18.788Z,8.50
2019-02-24T11:07:46.266Z,8.70
2019-02-24T11:10:14.694Z,8.80
2019-02-24T11:12:42.061Z,9.00
2019-02-24T11:15:09.817Z,9.20
2019-02-24T11:17:37.220Z,9.40
2019-02-24T11:20:05.764Z,9.60
2019-02-24T11:22:34.230Z,9.80
2019-02-24T11:25:01.629Z,9.90
2019-02-24T11:27:29.178Z,10.00
2019-02-24T11:29:56.601Z,10.10
2019-02-24T11:32:23.996Z,10.20
2019-02-24T11:34:51.375Z,10.10
2019-02-24T11:37:18.811Z,10.10
2019-02-24T11:39:46.097Z,10.20
2019-02-24T11:42:14.564Z,11.80
2019-02-24T11:44:41.934Z,14.30
2019-02-24T11:47:09.282Z,16.10
2019-02-24T11:49:36.644Z,17.90
2019-02-24T11:52:05.063Z,18.90
2019-02-24T11:54:32.503Z,20.00
2019-02-24T11:56:59.891Z,20.40
2019-02-24T11:59:27.344Z,19.60
2019-02-24T12:01:54.713Z,17.70
2019-02-24T12:04:22.046Z,16.10
2019-02-24T12:06:49.481Z,14.80
2019-02-24T12:09:16.856Z,13.70
2019-02-24T12:11:44.219Z,13.20
2019-02-24T12:14:11.608Z,13.40
2019-02-24T12:16:39.060Z,14.90
2019-02-24T12:19:06.500Z,16.60
2019-02-24T12:21:34.099Z,17.30
2019-02-24T12:24:01.518Z,18.50
2019-02-24T12:26:28.966Z,19.50
2019-02-24T12:28:56.557Z,20.30
2019-02-24T12:31:24.004Z,19.90
2019-02-24T12:33:51.363Z,19.90
2019-02-24T12:36:18.761Z,19.80
2019-02-24T12:38:46.123Z,19.60
2019-02-24T12:41:15.342Z,18.90
2019-02-24T12:43:42.832Z,18.90
2019-02-24T12:46:10.238Z,19.70
2019-02-24T12:48:37.731Z,20.20
2019-02-24T12:51:05.253Z,20.60
2019-02-24T12:53:33.786Z,19.00
2019-02-24T12:56:01.169Z,19.10
2019-02-24T12:58:28.523Z,19.80
2019-02-24T13:00:55.913Z,19.10
2019-02-24T13:03:24.211Z,18.50
2019-02-24T13:05:51.747Z,17.30
2019-02-24T13:08:19.176Z,16.30
2019-02-24T13:10:46.618Z,15.30
2019-02-24T13:13:14.008Z,14.80
2019-02-24T13:15:41.526Z,15.00
2019-02-24T13:18:08.880Z,15.70
2019-02-24T13:20:36.369Z,16.10
2019-02-24T13:23:03.840Z,15.80
2019-02-24T13:25:32.185Z,15.90
2019-02-24T13:27:59.567Z,16.40
2019-02-24T13:30:26.928Z,17.10
2019-02-24T13:32:54.422Z,17.70
2019-02-24T13:35:21.890Z,17.60
2019-02-24T13:37:49.236Z,16.50
2019-02-24T13:40:16.653Z,15.40
2019-02-24T13:42:44.044Z,14.50
2019-02-24T13:45:12.347Z,13.90
2019-02-24T13:47:39.834Z,13.50
2019-02-24T13:50:08.471Z,13.40
2019-02-24T13:52:35.862Z,13.70
2019-02-24T13:55:03.825Z,14.50
2019-02-24T13:57:31.247Z,15.80
2019-02-24T13:59:58.766Z,16.80
2019-02-24T14:02:27.292Z,16.80
2019-02-24T14:04:54.710Z,16.30
2019-02-24T14:07:22.054Z,15.50
2019-02-24T14:09:49.408Z,14.80
2019-02-24T14:12:16.670Z,14.10
2019-02-24T14:14:48.976Z,13.50
2019-02-24T14:17:13.560Z,13.10
2019-02-24T14:19:40.920Z,12.80
2019-02-24T14:22:09.821Z,12.60
2019-02-24T14:24:37.243Z,12.40
2019-02-24T14:27:04.726Z,12.40
2019-02-24T14:29:32.110Z,12.30
2019-02-24T14:31:59.467Z,12.20
2019-02-24T14:34:26.863Z,12.10
2019-02-24T14:36:54.256Z,12.10
2019-02-24T14:39:22.294Z,12.10
2019-02-24T14:41:49.779Z,12.10
2019-02-24T14:44:17.114Z,12.10
2019-02-24T14:46:44.477Z,12.00
2019-02-24T14:49:11.870Z,11.90
2019-02-24T14:51:39.241Z,11.90
2019-02-24T14:54:06.587Z,11.90
2019-02-24T14:56:33.977Z,11.90
2019-02-24T14:59:01.392Z,11.90
2019-02-24T15:01:28.870Z,11.80
2019-02-24T15:03:56.221Z,11.80
2019-02-24T15:06:23.650Z,11.60
2019-02-24T15:08:51.049Z,11.70
2019-02-24T15:11:18.473Z,11.60
2019-02-24T15:13:45.813Z,11.60
2019-02-24T15:16:13.242Z,11.70
2019-02-24T15:18:40.614Z,11.70
2019-02-24T15:21:08.064Z,11.60
2019-02-24T15:23:35.491Z,11.70
2019-02-24T15:26:03.693Z,11.70
2019-02-24T15:28:30.972Z,11.60
2019-02-24T15:30:59.483Z,11.60
2019-02-24T15:33:26.994Z,11.50
2019-02-24T15:35:54.414Z,11.50
2019-02-24T15:38:22.869Z,11.40
2019-02-24T15:40:50.306Z,11.50
2019-02-24T15:43:17.802Z,11.40
2019-02-24T15:45:45.143Z,11.30
2019-02-24T15:48:12.591Z,11.30
2019-02-24T15:50:39.942Z,11.30
2019-02-24T15:53:07.419Z,11.30
2019-02-24T15:55:34.839Z,11.30
2019-02-24T15:58:02.209Z,11.20
2019-02-24T16:00:29.652Z,11.20
2019-02-24T16:03:01.421Z,11.10
2019-02-24T16:05:28.886Z,11.10
2019-02-24T16:07:56.279Z,11.10
2019-02-24T16:10:23.692Z,11.00
2019-02-24T16:12:51.155Z,10.90
2019-02-24T16:15:18.475Z,10.80
2019-02-24T16:17:45.949Z,10.80
2019-02-24T16:20:18.890Z,10.80
2019-02-24T16:22:46.345Z,10.80
2019-02-24T16:25:13.783Z,10.70
2019-02-24T16:27:41.315Z,10.70
2019-02-24T16:30:09.824Z,10.60
2019-02-24T16:32:37.149Z,10.60
2019-02-24T16:35:05.013Z,10.50
2019-02-24T16:37:32.434Z,10.40
2019-02-24T16:39:59.873Z,10.40
2019-02-24T16:42:27.396Z,10.30
2019-02-24T16:44:54.759Z,10.30
2019-02-24T16:47:22.150Z,10.40
2019-02-24T16:49:49.636Z,10.30
2019-02-24T16:52:17.029Z,10.30
2019-02-24T16:54:52.531Z,10.10
2019-02-24T16:57:13.786Z,10.10
2019-02-24T16:59:41.191Z,9.90
2019-02-24T17:02:08.722Z,9.90
2019-02-24T17:04:36.179Z,9.80
2019-02-24T17:07:03.590Z,9.70
2019-02-24T17:09:30.961Z,9.60
2019-02-24T17:11:58.376Z,9.50
2019-02-24T17:14:25.867Z,9.40
2019-02-24T17:17:01.375Z,9.40
2019-02-24T17:19:22.754Z,9.30
2019-02-24T17:21:50.355Z,9.20
2019-02-24T17:24:17.807Z,9.20
2019-02-24T17:26:45.347Z,9.10
2019-02-24T17:29:12.777Z,9.10
2019-02-24T17:31:40.159Z,9.00
2019-02-24T17:34:07.629Z,8.90
2019-02-24T17:36:35.114Z,8.90
2019-02-24T17:39:03.997Z,8.90
2019-02-24T17:41:33.504Z,8.80
2019-02-24T17:44:00.915Z,8.80
2019-02-24T17:46:28.392Z,8.70
2019-02-24T17:48:55.818Z,8.60
2019-02-24T17:51:23.447Z,8.50
2019-02-24T17:53:50.806Z,8.50
2019-02-24T17:56:18.248Z,8.50
2019-02-24T17:58:45.834Z,8.40
2019-02-24T18:01:13.400Z,8.40
2019-02-24T18:03:40.953Z,8.30
2019-02-24T18:06:08.343Z,8.20
2019-02-24T18:08:35.784Z,8.20
2019-02-24T18:11:03.251Z,8.10
2019-02-24T18:13:30.628Z,8.10
2019-02-24T18:15:58.035Z,7.90
2019-02-24T18:18:25.355Z,7.90
2019-02-24T18:20:52.748Z,7.80
2019-02-24T18:23:20.317Z,7.80
2019-02-24T18:25:47.731Z,7.80
2019-02-24T18:28:15.239Z,7.70
2019-02-24T18:30:42.654Z,7.70
2019-02-24T18:33:10.045Z,7.70
2019-02-24T18:35:37.522Z,7.60
2019-02-24T18:38:04.950Z,7.60
2019-02-24T18:40:32.333Z,7.50
2019-02-24T18:43:00.872Z,7.50
2019-02-24T18:45:28.365Z,7.60
2019-02-24T18:47:55.867Z,7.60
2019-02-24T18:50:23.418Z,7.60
2019-02-24T18:52:54.722Z,7.80
2019-02-24T18:55:22.122Z,7.70
2019-02-24T18:57:51.030Z,7.70
2019-02-24T19:00:19.001Z,7.70
2019-02-24T19:02:47.615Z,7.70
2019-02-24T19:05:17.280Z,7.60
2019-02-24T19:07:45.435Z,7.50
2019-02-24T19:10:14.003Z,7.50
2019-02-24T19:12:41.460Z,7.50
2019-02-24T19:15:11.987Z,7.40
2019-02-24T19:17:39.555Z,7.40
2019-02-24T19:20:07.934Z,7.40
2019-02-24T19:22:35.566Z,7.40
2019-02-24T19:25:03.235Z,7.30
2019-02-24T19:27:31.363Z,7.30
2019-02-24T19:29:59.072Z,7.30
2019-02-24T19:32:26.604Z,7.20
2019-02-24T19:34:54.092Z,7.20
2019-02-24T19:37:21.587Z,7.30
2019-02-24T19:39:49.104Z,7.20
2019-02-24T19:42:16.486Z,7.10
2019-02-24T19:44:44.018Z,7.10
2019-02-24T19:47:12.217Z,7.10
2019-02-24T19:49:39.745Z,7.10
2019-02-24T19:52:07.116Z,7.10
2019-02-24T19:54:34.730Z,7.10
2019-02-24T19:57:02.200Z,7.00
2019-02-24T19:59:29.572Z,6.90
2019-02-24T20:01:57.031Z,6.90
2019-02-24T20:04:24.549Z,6.80
2019-02-24T20:06:53.209Z,6.70
2019-02-24T20:09:20.703Z,6.70
2019-02-24T20:11:48.199Z,6.60
2019-02-24T20:14:16.172Z,6.60
2019-02-24T20:16:45.366Z,6.50
2019-02-24T20:19:13.248Z,6.40
2019-02-24T20:21:40.779Z,6.40
2019-02-24T20:24:08.364Z,6.20
2019-02-24T20:26:35.706Z,6.20
2019-02-24T20:29:03.220Z,6.10
2019-02-24T20:31:30.819Z,6.00
2019-02-24T20:33:58.379Z,6.00
2019-02-24T20:36:26.420Z,5.90
2019-02-24T20:38:53.754Z,5.90
2019-02-24T20:41:21.160Z,5.80
2019-02-24T20:43:48.629Z,5.70
2019-02-24T20:46:16.086Z,5.70
2019-02-24T20:48:43.604Z,5.60
2019-02-24T20:51:11.013Z,5.60
2019-02-24T20:53:38.436Z,5.60
2019-02-24T20:56:05.774Z,5.60
2019-02-24T20:58:33.182Z,5.50
2019-02-24T21:01:00.596Z,5.50
2019-02-24T21:03:28.028Z,5.50
2019-02-24T21:05:55.401Z,5.50
2019-02-24T21:08:22.843Z,5.60
2019-02-24T21:10:50.271Z,5.60
2019-02-24T21:13:17.657Z,5.60
2019-02-24T21:15:45.049Z,5.60
2019-02-24T21:18:12.506Z,5.60
2019-02-24T21:20:39.998Z,5.60
2019-02-24T21:23:07.353Z,5.60
2019-02-24T21:25:34.816Z,5.70
2019-02-24T21:28:02.278Z,5.80
2019-02-24T21:30:31.709Z,5.80
2019-02-24T21:32:58.998Z,5.80
2019-02-24T21:35:26.415Z,5.90
2019-02-24T21:37:53.828Z,5.90
2019-02-24T21:40:23.361Z,5.90
2019-02-24T21:42:50.599Z,5.90
2019-02-24T21:45:18.403Z,5.90
2019-02-24T21:47:45.775Z,5.90
2019-02-24T21:50:14.707Z,5.90
2019-02-24T21:52:42.162Z,5.90
2019-02-24T21:55:09.654Z,5.90
2019-02-24T21:57:37.098Z,5.80
2019-02-24T22:00:07.416Z,5.80
2019-02-24T22:02:35.113Z,5.70
2019-02-24T22:05:02.879Z,5.70
2019-02-24T22:07:30.285Z,5.60
2019-02-24T22:09:57.786Z,5.60
2019-02-24T22:12:25.212Z,5.60
2019-02-24T22:14:52.603Z,5.70
2019-02-24T22:17:20.009Z,5.60
2019-02-24T22:19:47.473Z,5.60
2019-02-24T22:22:14.898Z,5.60
2019-02-24T22:24:42.201Z,5.60
2019-02-24T22:27:09.550Z,5.50
2019-02-24T22:29:36.922Z,5.60
2019-02-24T22:32:04.233Z,5.50
2019-02-24T22:34:31.691Z,5.50
2019-02-24T22:36:59.084Z,5.50
2019-02-24T22:39:26.487Z,5.50
2019-02-24T22:41:54.271Z,5.50
2019-02-24T22:44:21.624Z,5.50
2019-02-24T22:46:49.456Z,5.50
2019-02-24T22:49:16.798Z,5.50
2019-02-24T22:51:44.205Z,5.60
2019-02-24T22:54:11.637Z,5.60
2019-02-24T22:56:39.035Z,5.60
2019-02-24T22:59:06.474Z,5.70
2019-02-24T23:01:37.245Z,5.60
2019-02-24T23:04:10.991Z,5.60
2019-02-24T23:06:38.570Z,5.40
2019-02-24T23:09:10.226Z,5.40
2019-02-24T23:11:38.379Z,5.20
2019-02-24T23:14:05.740Z,5.10
2019-02-24T23:16:33.200Z,5.00
2019-02-24T23:19:00.599Z,4.80
2019-02-24T23:21:27.979Z,4.70
2019-02-24T23:23:55.330Z,4.60
2019-02-24T23:26:22.747Z,4.40
2019-02-24T23:28:50.255Z,4.40
2019-02-24T23:31:17.714Z,4.30
2019-02-24T23:33:45.080Z,4.30
2019-02-24T23:36:12.465Z,4.30
2019-02-24T23:38:39.886Z,4.30
2019-02-24T23:41:07.959Z,4.40
2019-02-24T23:43:35.334Z,4.30
2019-02-24T23:46:02.688Z,4.30
2019-02-24T23:48:30.027Z,4.30
2019-02-24T23:50:57.399Z,4.30
2019-02-24T23:53:24.783Z,4.30
2019-02-24T23:55:52.150Z,4.30
2019-02-24T23:58:19.618Z,4.20
